sensor_id;sensor_type;location;lat;lon;timestamp;pressure;altitude;pressure_sealevel;temperature;humidity
9141;BME280;46330;50.822;7.126;2023-11-18T00:00:13;101814.09;;;2.98;100.00
9141;BME280;46330;50.822;7.126;2023-11-18T00:02:43;101811.69;;;3.04;100.00
9141;BME280;46330;50.822;7.126;2023-11-18T00:05:12;101818.63;;;3.05;100.00
9141;BME280;46330;50.822;7.126;2023-11-18T00:07:40;101820.41;;;3.07;100.00
9141;BME280;46330;50.822;7.126;2023-11-18T00:10:09;101831.66;;;3.09;100.00
9141;BME280;46330;50.822;7.126;2023-11-18T00:12:37;101823.13;;;3.12;100.00
9141;BME280;46330;50.822;7.126;2023-11-18T00:15:09;101829.16;;;3.12;100.00
9141;BME280;46330;50.822;7.126;2023-11-18T00:17:38;101829.22;;;3.14;100.00
9141;BME280;46330;50.822;7.126;2023-11-18T00:20:08;101822.22;;;3.11;100.00
9141;BME280;46330;50.822;7.126;2023-11-18T00:22:37;101826.69;;;3.15;100.00
9141;BME280;46330;50.822;7.126;2023-11-18T00:25:07;101830.06;;;3.13;100.00
9141;BME280;46330;50.822;7.126;2023-11-18T00:27:35;101827.56;;;3.16;100.00
9141;BME280;46330;50.822;7.126;2023-11-18T00:30:05;101821.66;;;3.20;100.00
9141;BME280;46330;50.822;7.126;2023-11-18T00:32:36;101825.13;;;3.20;100.00
9141;BME280;46330;50.822;7.126;2023-11-18T00:35:06;101832.00;;;3.20;100.00
9141;BME280;46330;50.822;7.126;2023-11-18T00:37:38;101828.53;;;3.19;100.00
9141;BME280;46330;50.822;7.126;2023-11-18T00:40:07;101818.09;;;3.16;100.00
9141;BME280;46330;50.822;7.126;2023-11-18T00:42:36;101821.50;;;3.15;100.00
9141;BME280;46330;50.822;7.126;2023-11-18T00:45:05;101818.97;;;3.17;100.00
9141;BME280;46330;50.822;7.126;2023-11-18T00:47:35;101816.34;;;3.15;100.00
9141;BME280;46330;50.822;7.126;2023-11-18T00:50:04;101812.03;;;3.16;100.00
9141;BME280;46330;50.822;7.126;2023-11-18T00:52:35;101810.19;;;3.12;100.00
9141;BME280;46330;50.822;7.126;2023-11-18T00:55:06;101802.53;;;3.15;100.00
9141;BME280;46330;50.822;7.126;2023-11-18T00:57:35;101802.53;;;3.15;100.00
9141;BME280;46330;50.822;7.126;2023-11-18T01:00:07;101806.69;;;3.10;100.00
9141;BME280;46330;50.822;7.126;2023-11-18T01:02:42;101797.25;;;3.10;100.00
9141;BME280;46330;50.822;7.126;2023-11-18T01:05:10;101790.47;;;3.14;100.00
9141;BME280;46330;50.822;7.126;2023-11-18T01:07:40;101795.47;;;3.09;100.00
9141;BME280;46330;50.822;7.126;2023-11-18T01:10:10;101796.50;;;3.14;100.00
9141;BME280;46330;50.822;7.126;2023-11-18T01:12:38;101793.94;;;3.14;100.00
9141;BME280;46330;50.822;7.126;2023-11-18T01:15:06;101802.53;;;3.15;100.00
9141;BME280;46330;50.822;7.126;2023-11-18T01:17:37;101799.13;;;3.16;100.00
9141;BME280;46330;50.822;7.126;2023-11-18T01:20:07;101800.03;;;3.18;100.00
9141;BME280;46330;50.822;7.126;2023-11-18T01:22:36;101797.34;;;3.15;100.00
9141;BME280;46330;50.822;7.126;2023-11-18T01:25:06;101801.78;;;3.17;100.00
9141;BME280;46330;50.822;7.126;2023-11-18T01:27:35;101813.91;;;3.20;100.00
9141;BME280;46330;50.822;7.126;2023-11-18T01:30:04;101809.63;;;3.20;100.00
9141;BME280;46330;50.822;7.126;2023-11-18T01:32:32;101816.41;;;3.18;100.00
9141;BME280;46330;50.822;7.126;2023-11-18T01:35:01;101810.47;;;3.21;100.00
9141;BME280;46330;50.822;7.126;2023-11-18T01:37:31;101814.72;;;3.19;100.00
9141;BME280;46330;50.822;7.126;2023-11-18T01:39:59;101818.28;;;3.22;100.00
9141;BME280;46330;50.822;7.126;2023-11-18T01:42:32;101819.94;;;3.20;100.00
9141;BME280;46330;50.822;7.126;2023-11-18T01:45:00;101817.41;;;3.22;100.00
9141;BME280;46330;50.822;7.126;2023-11-18T01:47:31;101825.16;;;3.22;100.00
9141;BME280;46330;50.822;7.126;2023-11-18T01:50:00;101829.50;;;3.23;100.00
9141;BME280;46330;50.822;7.126;2023-11-18T01:52:29;101834.69;;;3.24;100.00
9141;BME280;46330;50.822;7.126;2023-11-18T01:54:59;101818.31;;;3.24;100.00
9141;BME280;46330;50.822;7.126;2023-11-18T01:57:27;101832.09;;;3.23;100.00
9141;BME280;46330;50.822;7.126;2023-11-18T01:59:56;101825.16;;;3.22;100.00
9141;BME280;46330;50.822;7.126;2023-11-18T02:02:25;101826.13;;;3.25;100.00
9141;BME280;46330;50.822;7.126;2023-11-18T02:04:53;101817.47;;;3.25;100.00
9141;BME280;46330;50.822;7.126;2023-11-18T02:07:22;101823.44;;;3.22;100.00
9141;BME280;46330;50.822;7.126;2023-11-18T02:09:51;101823.53;;;3.25;100.00
9141;BME280;46330;50.822;7.126;2023-11-18T02:12:25;101817.53;;;3.27;100.00
9141;BME280;46330;50.822;7.126;2023-11-18T02:14:55;101818.41;;;3.27;100.00
9141;BME280;46330;50.822;7.126;2023-11-18T02:17:27;101813.22;;;3.27;100.00
9141;BME280;46330;50.822;7.126;2023-11-18T02:19:57;101805.53;;;3.29;100.00
9141;BME280;46330;50.822;7.126;2023-11-18T02:22:25;101809.97;;;3.33;100.00
9141;BME280;46330;50.822;7.126;2023-11-18T02:24:55;101813.44;;;3.33;100.00
9141;BME280;46330;50.822;7.126;2023-11-18T02:27:24;101809.91;;;3.31;100.00
9141;BME280;46330;50.822;7.126;2023-11-18T02:29:53;101808.13;;;3.29;100.00
9141;BME280;46330;50.822;7.126;2023-11-18T02:32:26;101807.22;;;3.28;100.00
9141;BME280;46330;50.822;7.126;2023-11-18T02:35:01;101807.28;;;3.30;100.00
9141;BME280;46330;50.822;7.126;2023-11-18T02:37:32;101812.50;;;3.31;100.00
9141;BME280;46330;50.822;7.126;2023-11-18T02:40:04;101814.34;;;3.35;100.00
9141;BME280;46330;50.822;7.126;2023-11-18T02:42:37;101816.09;;;3.36;100.00
9141;BME280;46330;50.822;7.126;2023-11-18T02:45:07;101815.25;;;3.37;100.00
9141;BME280;46330;50.822;7.126;2023-11-18T02:47:39;101804.88;;;3.36;100.00
9141;BME280;46330;50.822;7.126;2023-11-18T02:50:08;101804.81;;;3.34;100.00
9141;BME280;46330;50.822;7.126;2023-11-18T02:52:38;101812.72;;;3.39;100.00
9141;BME280;46330;50.822;7.126;2023-11-18T02:55:07;101803.19;;;3.36;100.00
9141;BME280;46330;50.822;7.126;2023-11-18T02:57:37;101793.75;;;3.40;100.00
9141;BME280;46330;50.822;7.126;2023-11-18T03:00:07;101789.53;;;3.42;100.00
9141;BME280;46330;50.822;7.126;2023-11-18T03:02:39;101798.94;;;3.40;100.00
9141;BME280;46330;50.822;7.126;2023-11-18T03:05:07;101802.47;;;3.42;100.00
9141;BME280;46330;50.822;7.126;2023-11-18T03:07:40;101793.00;;;3.42;100.00
9141;BME280;46330;50.822;7.126;2023-11-18T03:10:09;101800.84;;;3.45;100.00
9141;BME280;46330;50.822;7.126;2023-11-18T03:12:40;101800.06;;;3.48;100.00
9141;BME280;46330;50.822;7.126;2023-11-18T03:15:09;101804.38;;;3.49;100.00
9141;BME280;46330;50.822;7.126;2023-11-18T03:17:38;101807.06;;;3.52;100.00
9141;BME280;46330;50.822;7.126;2023-11-18T03:20:07;101817.44;;;3.53;100.00
9141;BME280;46330;50.822;7.126;2023-11-18T03:22:36;101812.41;;;3.58;100.00
9141;BME280;46330;50.822;7.126;2023-11-18T03:25:04;101806.31;;;3.56;100.00
9141;BME280;46330;50.822;7.126;2023-11-18T03:27:34;101794.34;;;3.59;100.00
9141;BME280;46330;50.822;7.126;2023-11-18T03:30:04;101787.38;;;3.57;100.00
9141;BME280;46330;50.822;7.126;2023-11-18T03:32:33;101779.63;;;3.58;100.00
9141;BME280;46330;50.822;7.126;2023-11-18T03:35:02;101775.41;;;3.60;100.00
9141;BME280;46330;50.822;7.126;2023-11-18T03:37:31;101777.03;;;3.58;100.00
9141;BME280;46330;50.822;7.126;2023-11-18T03:39:59;101775.31;;;3.57;100.00
9141;BME280;46330;50.822;7.126;2023-11-18T03:42:27;101777.09;;;3.60;100.00
9141;BME280;46330;50.822;7.126;2023-11-18T03:44:55;101758.94;;;3.58;100.00
9141;BME280;46330;50.822;7.126;2023-11-18T03:47:26;101755.44;;;3.56;100.00
9141;BME280;46330;50.822;7.126;2023-11-18T03:49:54;101751.97;;;3.54;100.00
9141;BME280;46330;50.822;7.126;2023-11-18T03:52:22;101760.69;;;3.58;100.00
9141;BME280;46330;50.822;7.126;2023-11-18T03:54:50;101758.91;;;3.57;100.00
9141;BME280;46330;50.822;7.126;2023-11-18T03:57:17;101770.16;;;3.57;100.00
9141;BME280;46330;50.822;7.126;2023-11-18T03:59:45;101775.25;;;3.54;100.00
9141;BME280;46330;50.822;7.126;2023-11-18T04:02:13;101773.47;;;3.53;100.00
9141;BME280;46330;50.822;7.126;2023-11-18T04:04:43;101776.06;;;3.53;100.00
9141;BME280;46330;50.822;7.126;2023-11-18T04:07:11;101785.50;;;3.51;100.00
9141;BME280;46330;50.822;7.126;2023-11-18T04:09:39;101789.78;;;3.51;100.00
9141;BME280;46330;50.822;7.126;2023-11-18T04:12:08;101798.38;;;3.50;100.00
9141;BME280;46330;50.822;7.126;2023-11-18T04:14:36;101795.78;;;3.50;100.00
9141;BME280;46330;50.822;7.126;2023-11-18T04:17:04;101785.41;;;3.48;100.00
9141;BME280;46330;50.822;7.126;2023-11-18T04:19:34;101786.25;;;3.49;100.00
9141;BME280;46330;50.822;7.126;2023-11-18T04:22:03;101794.03;;;3.49;100.00
9141;BME280;46330;50.822;7.126;2023-11-18T04:24:32;101788.75;;;3.44;100.00
9141;BME280;46330;50.822;7.126;2023-11-18T04:27:02;101777.50;;;3.44;100.00
9141;BME280;46330;50.822;7.126;2023-11-18T04:29:30;101782.69;;;3.44;100.00
9141;BME280;46330;50.822;7.126;2023-11-18T04:31:58;101771.44;;;3.42;100.00
9141;BME280;46330;50.822;7.126;2023-11-18T04:34:27;101756.75;;;3.41;100.00
9141;BME280;46330;50.822;7.126;2023-11-18T04:36:56;101760.22;;;3.43;100.00
9141;BME280;46330;50.822;7.126;2023-11-18T04:39:25;101755.91;;;3.42;100.00
9141;BME280;46330;50.822;7.126;2023-11-18T04:41:54;101760.22;;;3.41;100.00
9141;BME280;46330;50.822;7.126;2023-11-18T04:44:23;101749.00;;;3.41;100.00
9141;BME280;46330;50.822;7.126;2023-11-18T04:46:51;101751.63;;;3.42;100.00
9141;BME280;46330;50.822;7.126;2023-11-18T04:49:19;101749.00;;;3.41;100.00
9141;BME280;46330;50.822;7.126;2023-11-18T04:51:47;101735.16;;;3.39;100.00
9141;BME280;46330;50.822;7.126;2023-11-18T04:54:15;101737.75;;;3.40;100.00
9141;BME280;46330;50.822;7.126;2023-11-18T04:56:44;101743.81;;;3.41;100.00
9141;BME280;46330;50.822;7.126;2023-11-18T04:59:12;101741.22;;;3.41;100.00
9141;BME280;46330;50.822;7.126;2023-11-18T05:01:40;101733.53;;;3.42;100.00
9141;BME280;46330;50.822;7.126;2023-11-18T05:04:09;101719.66;;;3.40;100.00
9141;BME280;46330;50.822;7.126;2023-11-18T05:06:37;101723.19;;;3.42;100.00
9141;BME280;46330;50.822;7.126;2023-11-18T05:09:05;101724.88;;;3.42;100.00
9141;BME280;46330;50.822;7.126;2023-11-18T05:11:34;101719.81;;;3.45;100.00
9141;BME280;46330;50.822;7.126;2023-11-18T05:14:04;101710.28;;;3.44;100.00
9141;BME280;46330;50.822;7.126;2023-11-18T05:16:34;101700.00;;;3.47;100.00
9141;BME280;46330;50.822;7.126;2023-11-18T05:19:02;101699.13;;;3.45;100.00
9141;BME280;46330;50.822;7.126;2023-11-18T05:21:30;101701.72;;;3.46;100.00
9141;BME280;46330;50.822;7.126;2023-11-18T05:23:58;101699.94;;;3.44;100.00
9141;BME280;46330;50.822;7.126;2023-11-18T05:26:26;101687.84;;;3.43;100.00
9141;BME280;46330;50.822;7.126;2023-11-18T05:28:53;101695.59;;;3.43;100.00
9141;BME280;46330;50.822;7.126;2023-11-18T05:31:23;101698.16;;;3.41;100.00
9141;BME280;46330;50.822;7.126;2023-11-18T05:33:51;101686.91;;;3.39;100.00
9141;BME280;46330;50.822;7.126;2023-11-18T05:36:22;101686.03;;;3.40;100.00
9141;BME280;46330;50.822;7.126;2023-11-18T05:38:55;101675.69;;;3.40;100.00
9141;BME280;46330;50.822;7.126;2023-11-18T05:41:22;101675.75;;;3.42;100.00
9141;BME280;46330;50.822;7.126;2023-11-18T05:43:54;101671.41;;;3.41;100.00
9141;BME280;46330;50.822;7.126;2023-11-18T05:46:25;101682.66;;;3.43;100.00
9141;BME280;46330;50.822;7.126;2023-11-18T05:48:57;101681.81;;;3.42;100.00
9141;BME280;46330;50.822;7.126;2023-11-18T05:51:26;101678.44;;;3.45;100.00
9141;BME280;46330;50.822;7.126;2023-11-18T05:53:56;101678.44;;;3.46;100.00
9141;BME280;46330;50.822;7.126;2023-11-18T05:56:24;101668.09;;;3.46;100.00
9141;BME280;46330;50.822;7.126;2023-11-18T05:58:52;101661.28;;;3.48;100.00
9141;BME280;46330;50.822;7.126;2023-11-18T06:01:21;101648.28;;;3.47;100.00
9141;BME280;46330;50.822;7.126;2023-11-18T06:03:51;101658.72;;;3.50;100.00
9141;BME280;46330;50.822;7.126;2023-11-18T06:06:19;101650.22;;;3.54;100.00
9141;BME280;46330;50.822;7.126;2023-11-18T06:08:51;101644.97;;;3.52;100.00
9141;BME280;46330;50.822;7.126;2023-11-18T06:11:20;101651.09;;;3.54;100.00
9141;BME280;46330;50.822;7.126;2023-11-18T06:13:51;101660.63;;;3.57;100.00
9141;BME280;46330;50.822;7.126;2023-11-18T06:16:21;101660.66;;;3.58;100.00
9141;BME280;46330;50.822;7.126;2023-11-18T06:18:53;101662.41;;;3.59;100.00
9141;BME280;46330;50.822;7.126;2023-11-18T06:21:23;101666.78;;;3.62;100.00
9141;BME280;46330;50.822;7.126;2023-11-18T06:23:55;101663.38;;;3.63;100.00
9141;BME280;46330;50.822;7.126;2023-11-18T06:26:23;101650.50;;;3.66;100.00
9141;BME280;46330;50.822;7.126;2023-11-18T06:28:54;101650.53;;;3.67;100.00
9141;BME280;46330;50.822;7.126;2023-11-18T06:31:22;101648.81;;;3.68;100.00
9141;BME280;46330;50.822;7.126;2023-11-18T06:33:52;101646.28;;;3.69;100.00
9141;BME280;46330;50.822;7.126;2023-11-18T06:36:21;101648.00;;;3.69;100.00
9141;BME280;46330;50.822;7.126;2023-11-18T06:38:51;101645.50;;;3.72;100.00
9141;BME280;46330;50.822;7.126;2023-11-18T06:41:22;101660.19;;;3.73;100.00
9141;BME280;46330;50.822;7.126;2023-11-18T06:43:52;101654.22;;;3.75;100.00
9141;BME280;46330;50.822;7.126;2023-11-18T06:46:29;101639.56;;;3.76;100.00
9141;BME280;46330;50.822;7.126;2023-11-18T06:49:02;101637.00;;;3.77;100.00
9141;BME280;46330;50.822;7.126;2023-11-18T06:51:34;101641.38;;;3.80;100.00
9141;BME280;46330;50.822;7.126;2023-11-18T06:54:05;101632.81;;;3.83;100.00
9141;BME280;46330;50.822;7.126;2023-11-18T06:56:37;101639.72;;;3.82;100.00
9141;BME280;46330;50.822;7.126;2023-11-18T06:59:05;101655.22;;;3.82;100.00
9141;BME280;46330;50.822;7.126;2023-11-18T07:01:34;101667.44;;;3.88;100.00
9141;BME280;46330;50.822;7.126;2023-11-18T07:04:05;101673.59;;;3.93;100.00
9141;BME280;46330;50.822;7.126;2023-11-18T07:06:35;101668.47;;;3.94;100.00
9141;BME280;46330;50.822;7.126;2023-11-18T07:09:06;101670.25;;;3.97;100.00
9141;BME280;46330;50.822;7.126;2023-11-18T07:11:39;101673.72;;;3.99;100.00
9141;BME280;46330;50.822;7.126;2023-11-18T07:14:08;101673.78;;;4.00;100.00
9141;BME280;46330;50.822;7.126;2023-11-18T07:16:38;101675.63;;;4.06;100.00
9141;BME280;46330;50.822;7.126;2023-11-18T07:19:08;101679.19;;;4.09;100.00
9141;BME280;46330;50.822;7.126;2023-11-18T07:21:37;101692.25;;;4.14;100.00
9141;BME280;46330;50.822;7.126;2023-11-18T07:24:06;101692.31;;;4.17;100.00
9141;BME280;46330;50.822;7.126;2023-11-18T07:26:34;101690.56;;;4.17;100.00
9141;BME280;46330;50.822;7.126;2023-11-18T07:29:02;101689.81;;;4.21;100.00
9141;BME280;46330;50.822;7.126;2023-11-18T07:31:30;101684.72;;;4.24;100.00
9141;BME280;46330;50.822;7.126;2023-11-18T07:33:58;101685.72;;;4.31;100.00
9141;BME280;46330;50.822;7.126;2023-11-18T07:36:27;101684.09;;;4.34;100.00
9141;BME280;46330;50.822;7.126;2023-11-18T07:38:56;101681.44;;;4.31;100.00
9141;BME280;46330;50.822;7.126;2023-11-18T07:41:25;101679.81;;;4.37;100.00
9141;BME280;46330;50.822;7.126;2023-11-18T07:43:58;101684.09;;;4.36;100.00
9141;BME280;46330;50.822;7.126;2023-11-18T07:46:27;101672.09;;;4.40;100.00
9141;BME280;46330;50.822;7.126;2023-11-18T07:48:58;101678.16;;;4.40;100.00
9141;BME280;46330;50.822;7.126;2023-11-18T07:51:29;101662.75;;;4.46;100.00
9141;BME280;46330;50.822;7.126;2023-11-18T07:53:57;101641.16;;;4.46;100.00
9141;BME280;46330;50.822;7.126;2023-11-18T07:56:26;101649.88;;;4.49;100.00
9141;BME280;46330;50.822;7.126;2023-11-18T07:58:55;101642.16;;;4.52;100.00
9141;BME280;46330;50.822;7.126;2023-11-18T08:01:23;101633.63;;;4.56;100.00
9141;BME280;46330;50.822;7.126;2023-11-18T08:03:53;101634.56;;;4.60;100.00
9141;BME280;46330;50.822;7.126;2023-11-18T08:06:21;101634.75;;;4.70;100.00
9141;BME280;46330;50.822;7.126;2023-11-18T08:08:54;101635.63;;;4.69;100.00
9141;BME280;46330;50.822;7.126;2023-11-18T08:11:24;101635.81;;;4.78;100.00
9141;BME280;46330;50.822;7.126;2023-11-18T08:13:52;101636.78;;;4.83;100.00
9141;BME280;46330;50.822;7.126;2023-11-18T08:16:20;101619.56;;;4.87;100.00
9141;BME280;46330;50.822;7.126;2023-11-18T08:18:49;101634.34;;;4.91;100.00
9141;BME280;46330;50.822;7.126;2023-11-18T08:21:18;101633.63;;;5.00;100.00
9141;BME280;46330;50.822;7.126;2023-11-18T08:23:47;101632.00;;;5.05;100.00
9141;BME280;46330;50.822;7.126;2023-11-18T08:26:18;101632.06;;;5.08;100.00
9141;BME280;46330;50.822;7.126;2023-11-18T08:28:46;101638.19;;;5.11;100.00
9141;BME280;46330;50.822;7.126;2023-11-18T08:31:15;101646.88;;;5.15;100.00
9141;BME280;46330;50.822;7.126;2023-11-18T08:33:44;101651.31;;;5.19;100.00
9141;BME280;46330;50.822;7.126;2023-11-18T08:36:13;101649.59;;;5.19;100.00
9141;BME280;46330;50.822;7.126;2023-11-18T08:38:41;101641.00;;;5.23;100.00
9141;BME280;46330;50.822;7.126;2023-11-18T08:41:11;101646.28;;;5.29;100.00
9141;BME280;46330;50.822;7.126;2023-11-18T08:43:40;101646.28;;;5.29;100.00
9141;BME280;46330;50.822;7.126;2023-11-18T08:46:08;101649.03;;;5.35;100.00
9141;BME280;46330;50.822;7.126;2023-11-18T08:48:36;101658.56;;;5.38;100.00
9141;BME280;46330;50.822;7.126;2023-11-18T08:51:05;101655.28;;;5.47;100.00
9141;BME280;46330;50.822;7.126;2023-11-18T08:53:35;101648.38;;;5.49;100.00
9141;BME280;46330;50.822;7.126;2023-11-18T08:56:08;101642.41;;;5.53;100.00
9141;BME280;46330;50.822;7.126;2023-11-18T08:58:44;101643.34;;;5.58;100.00
9141;BME280;46330;50.822;7.126;2023-11-18T09:01:12;101636.56;;;5.66;100.00
9141;BME280;46330;50.822;7.126;2023-11-18T09:03:42;101629.66;;;5.66;100.00
9141;BME280;46330;50.822;7.126;2023-11-18T09:06:20;101639.16;;;5.66;100.00
9141;BME280;46330;50.822;7.126;2023-11-18T09:08:53;101634.88;;;5.68;100.00
9141;BME280;46330;50.822;7.126;2023-11-18T09:11:22;101634.13;;;5.76;100.00
9141;BME280;46330;50.822;7.126;2023-11-18T09:13:55;101632.41;;;5.75;100.00
9141;BME280;46330;50.822;7.126;2023-11-18T09:16:27;101627.31;;;5.83;100.00
9141;BME280;46330;50.822;7.126;2023-11-18T09:18:57;101633.38;;;5.82;100.00
9141;BME280;46330;50.822;7.126;2023-11-18T09:21:26;101639.50;;;5.85;100.00
9141;BME280;46330;50.822;7.126;2023-11-18T09:23:56;101632.69;;;5.92;100.00
9141;BME280;46330;50.822;7.126;2023-11-18T09:26:24;101630.13;;;5.93;100.00
9141;BME280;46330;50.822;7.126;2023-11-18T09:28:58;101618.03;;;5.95;100.00
9141;BME280;46330;50.822;7.126;2023-11-18T09:31:28;101624.06;;;5.93;100.00
9141;BME280;46330;50.822;7.126;2023-11-18T09:33:58;101616.31;;;5.94;100.00
9141;BME280;46330;50.822;7.126;2023-11-18T09:36:26;101613.75;;;5.99;100.00
9141;BME280;46330;50.822;7.126;2023-11-18T09:38:55;101604.25;;;6.01;100.00
9141;BME280;46330;50.822;7.126;2023-11-18T09:41:23;101612.94;;;6.00;100.00
9141;BME280;46330;50.822;7.126;2023-11-18T09:43:54;101608.66;;;6.04;100.00
9141;BME280;46330;50.822;7.126;2023-11-18T09:46:26;101619.88;;;6.04;100.00
9141;BME280;46330;50.822;7.126;2023-11-18T09:49:06;101625.19;;;6.10;100.00
9141;BME280;46330;50.822;7.126;2023-11-18T09:51:43;101623.50;;;6.14;100.00
9141;BME280;46330;50.822;7.126;2023-11-18T09:54:18;101611.34;;;6.10;100.00
9141;BME280;46330;50.822;7.126;2023-11-18T09:56:56;101622.63;;;6.12;100.00
9141;BME280;46330;50.822;7.126;2023-11-18T09:59:39;101623.56;;;6.18;100.00
9141;BME280;46330;50.822;7.126;2023-11-18T10:02:13;101613.19;;;6.18;100.00
9141;BME280;46330;50.822;7.126;2023-11-18T10:04:46;101601.97;;;6.21;100.00
9141;BME280;46330;50.822;7.126;2023-11-18T10:07:18;101598.53;;;6.22;100.00
9141;BME280;46330;50.822;7.126;2023-11-18T10:09:47;101587.41;;;6.33;100.00
9141;BME280;46330;50.822;7.126;2023-11-18T10:12:16;101594.34;;;6.33;100.00
9141;BME280;46330;50.822;7.126;2023-11-18T10:14:50;101591.00;;;6.44;100.00
9141;BME280;46330;50.822;7.126;2023-11-18T10:17:22;101597.13;;;6.48;100.00
9141;BME280;46330;50.822;7.126;2023-11-18T10:19:53;101584.19;;;6.54;100.00
9141;BME280;46330;50.822;7.126;2023-11-18T10:22:25;101572.09;;;6.53;100.00
9141;BME280;46330;50.822;7.126;2023-11-18T10:24:54;101567.69;;;6.49;100.00
9141;BME280;46330;50.822;7.126;2023-11-18T10:27:23;101571.25;;;6.56;100.00
9141;BME280;46330;50.822;7.126;2023-11-18T10:29:55;101570.22;;;6.43;100.00
9141;BME280;46330;50.822;7.126;2023-11-18T10:32:25;101566.81;;;6.47;100.00
9141;BME280;46330;50.822;7.126;2023-11-18T10:34:55;101555.53;;;6.46;100.00
9141;BME280;46330;50.822;7.126;2023-11-18T10:37:25;101549.53;;;6.52;100.00
9141;BME280;46330;50.822;7.126;2023-11-18T10:40:03;101534.84;;;6.56;100.00
9141;BME280;46330;50.822;7.126;2023-11-18T10:42:32;101527.91;;;6.55;100.00
9141;BME280;46330;50.822;7.126;2023-11-18T10:45:00;101534.81;;;6.54;100.00
9141;BME280;46330;50.822;7.126;2023-11-18T10:47:34;101532.22;;;6.54;100.00
9141;BME280;46330;50.822;7.126;2023-11-18T10:50:03;101527.94;;;6.58;100.00
9141;BME280;46330;50.822;7.126;2023-11-18T10:52:31;101508.84;;;6.53;100.00
9141;BME280;46330;50.822;7.126;2023-11-18T10:55:02;101498.44;;;6.53;100.00
9141;BME280;46330;50.822;7.126;2023-11-18T10:57:38;101496.72;;;6.55;100.00
9141;BME280;46330;50.822;7.126;2023-11-18T11:00:10;101479.47;;;6.60;100.00
9141;BME280;46330;50.822;7.126;2023-11-18T11:02:43;101482.13;;;6.66;100.00
9141;BME280;46330;50.822;7.126;2023-11-18T11:05:27;101470.91;;;6.71;100.00
9141;BME280;46330;50.822;7.126;2023-11-18T11:08:00;101467.53;;;6.83;100.00
9141;BME280;46330;50.822;7.126;2023-11-18T11:10:29;101463.19;;;6.80;100.00
9141;BME280;46330;50.822;7.126;2023-11-18T11:13:00;101453.69;;;6.85;100.00
9141;BME280;46330;50.822;7.126;2023-11-18T11:15:29;101458.97;;;6.93;100.00
9141;BME280;46330;50.822;7.126;2023-11-18T11:18:20;101458.97;;;6.94;100.00
9141;BME280;46330;50.822;7.126;2023-11-18T11:20:59;101459.06;;;7.02;100.00
9141;BME280;46330;50.822;7.126;2023-11-18T11:23:36;101461.59;;;6.96;100.00
9141;BME280;46330;50.822;7.126;2023-11-18T11:26:22;101462.47;;;6.98;100.00
9141;BME280;46330;50.822;7.126;2023-11-18T11:29:01;101456.41;;;7.00;100.00
9141;BME280;46330;50.822;7.126;2023-11-18T11:31:32;101459.00;;;6.96;100.00
9141;BME280;46330;50.822;7.126;2023-11-18T11:34:05;101457.22;;;6.92;100.00
9141;BME280;46330;50.822;7.126;2023-11-18T11:36:37;101454.63;;;6.90;100.00
9141;BME280;46330;50.822;7.126;2023-11-18T11:39:09;101461.53;;;6.88;100.00
9141;BME280;46330;50.822;7.126;2023-11-18T11:41:46;101458.13;;;6.94;100.00
9141;BME280;46330;50.822;7.126;2023-11-18T11:44:17;101452.88;;;6.88;100.00
9141;BME280;46330;50.822;7.126;2023-11-18T11:46:46;101450.31;;;6.95;100.00
9141;BME280;46330;50.822;7.126;2023-11-18T11:49:22;101444.19;;;6.89;100.00
9141;BME280;46330;50.822;7.126;2023-11-18T11:51:58;101438.19;;;6.96;100.00
9141;BME280;46330;50.822;7.126;2023-11-18T11:54:35;101432.97;;;6.93;100.00
9141;BME280;46330;50.822;7.126;2023-11-18T11:57:05;101433.00;;;6.97;100.00
9141;BME280;46330;50.822;7.126;2023-11-18T11:59:54;101426.94;;;6.98;100.00
9141;BME280;46330;50.822;7.126;2023-11-18T12:02:24;101422.63;;;7.02;100.00
9141;BME280;46330;50.822;7.126;2023-11-18T12:04:57;101417.44;;;7.02;100.00
9141;BME280;46330;50.822;7.126;2023-11-18T12:07:26;101428.75;;;7.09;100.00
9141;BME280;46330;50.822;7.126;2023-11-18T12:09:58;101415.75;;;7.10;100.00
9141;BME280;46330;50.822;7.126;2023-11-18T12:12:27;101414.03;;;7.11;100.00
9141;BME280;46330;50.822;7.126;2023-11-18T12:14:58;101411.44;;;7.09;100.00
9141;BME280;46330;50.822;7.126;2023-11-18T12:20:50;101397.56;;;7.13;100.00
9141;BME280;46330;50.822;7.126;2023-11-18T12:23:23;101393.25;;;7.14;100.00
9141;BME280;46330;50.822;7.126;2023-11-18T12:25:53;101378.50;;;7.11;100.00
9141;BME280;46330;50.822;7.126;2023-11-18T12:28:25;101375.88;;;7.10;100.00
9141;BME280;46330;50.822;7.126;2023-11-18T12:30:54;101368.94;;;7.13;100.00
9141;BME280;46330;50.822;7.126;2023-11-18T12:34:01;101383.72;;;7.13;100.00
9141;BME280;46330;50.822;7.126;2023-11-18T12:36:58;101366.38;;;7.15;100.00
9141;BME280;46330;50.822;7.126;2023-11-18T12:42:59;101351.63;;;7.12;100.00
9141;BME280;46330;50.822;7.126;2023-11-18T12:46:07;101340.34;;;7.13;100.00
9141;BME280;46330;50.822;7.126;2023-11-18T12:48:43;101324.75;;;7.19;100.00
9141;BME280;46330;50.822;7.126;2023-11-18T12:51:13;101310.03;;;7.23;100.00
9141;BME280;46330;50.822;7.126;2023-11-18T12:53:51;101304.00;;;7.24;100.00
9141;BME280;46330;50.822;7.126;2023-11-18T12:56:20;101302.25;;;7.26;100.00
9141;BME280;46330;50.822;7.126;2023-11-18T12:58:50;101291.88;;;7.27;100.00
9141;BME280;46330;50.822;7.126;2023-11-18T13:01:18;101289.25;;;7.27;100.00
9141;BME280;46330;50.822;7.126;2023-11-18T13:03:46;101284.94;;;7.28;100.00
9141;BME280;46330;50.822;7.126;2023-11-18T13:06:15;101271.91;;;7.29;100.00
9141;BME280;46330;50.822;7.126;2023-11-18T13:08:43;101264.09;;;7.26;100.00
9141;BME280;46330;50.822;7.126;2023-11-18T13:11:14;101263.22;;;7.29;100.00
9141;BME280;46330;50.822;7.126;2023-11-18T13:13:43;101258.00;;;7.23;100.00
9141;BME280;46330;50.822;7.126;2023-11-18T13:16:12;101266.72;;;7.25;100.00
9141;BME280;46330;50.822;7.126;2023-11-18T13:18:43;101271.88;;;7.23;100.00
9141;BME280;46330;50.822;7.126;2023-11-18T13:21:14;101257.16;;;7.27;100.00
9141;BME280;46330;50.822;7.126;2023-11-18T13:23:45;101238.09;;;7.26;100.00